createdAt,value
2019-03-06T00:01:50.954Z,4.70
2019-03-06T00:04:20.432Z,5.00
2019-03-06T00:06:50.000Z,4.53
2019-03-06T00:09:19.468Z,4.97
2019-03-06T00:11:49.352Z,4.97
2019-03-06T00:14:19.110Z,5.40
2019-03-06T00:16:48.495Z,4.57
2019-03-06T00:19:18.257Z,5.27
2019-03-06T00:21:47.727Z,4.93
2019-03-06T00:24:17.123Z,5.13
2019-03-06T00:26:46.511Z,5.10
2019-03-06T00:29:15.941Z,5.53
2019-03-06T00:31:45.389Z,5.93
2019-03-06T00:34:14.909Z,6.10
2019-03-06T00:36:44.348Z,6.60
2019-03-06T00:39:13.811Z,5.93
2019-03-06T00:41:45.861Z,6.70
2019-03-06T00:44:15.279Z,6.67
2019-03-06T00:46:44.709Z,7.20
2019-03-06T00:49:14.210Z,7.43
2019-03-06T00:51:43.726Z,6.70
2019-03-06T00:54:13.470Z,7.37
2019-03-06T00:56:42.914Z,7.67
2019-03-06T00:59:12.359Z,7.90
2019-03-06T01:01:41.821Z,7.10
2019-03-06T01:04:11.288Z,7.50
2019-03-06T01:06:40.809Z,8.37
2019-03-06T01:09:10.553Z,7.50
2019-03-06T01:11:39.967Z,8.73
2019-03-06T01:14:09.463Z,7.83
2019-03-06T01:16:38.869Z,8.57
2019-03-06T01:19:08.651Z,7.73
2019-03-06T01:21:38.157Z,8.40
2019-03-06T01:24:07.609Z,8.20
2019-03-06T01:26:37.036Z,7.70
2019-03-06T01:29:07.029Z,8.43
2019-03-06T01:31:36.470Z,8.70
2019-03-06T01:34:33.629Z,9.70
2019-03-06T01:37:11.455Z,7.93
2019-03-06T01:39:58.265Z,8.87
2019-03-06T01:42:46.648Z,8.27
2019-03-06T01:45:16.299Z,8.20
2019-03-06T01:47:45.786Z,7.77
2019-03-06T01:50:15.824Z,7.83
2019-03-06T01:52:45.459Z,7.37
2019-03-06T01:55:15.645Z,7.83
2019-03-06T01:57:45.081Z,7.47
2019-03-06T02:00:17.412Z,8.10
2019-03-06T02:02:47.141Z,8.10
2019-03-06T02:05:16.866Z,7.43
2019-03-06T02:07:46.240Z,8.20
2019-03-06T02:10:17.542Z,8.77
2019-03-06T02:12:47.359Z,8.80
2019-03-06T02:15:17.807Z,8.67
2019-03-06T02:17:47.231Z,8.23
2019-03-06T02:20:17.247Z,8.40
2019-03-06T02:22:46.765Z,8.80
2019-03-06T02:25:16.586Z,8.80
2019-03-06T02:27:46.238Z,8.93
2019-03-06T02:30:18.436Z,8.90
2019-03-06T02:32:48.079Z,9.90
2019-03-06T02:35:17.862Z,9.17
2019-03-06T02:37:47.308Z,10.50
2019-03-06T02:40:16.706Z,9.93
2019-03-06T02:42:46.210Z,9.50
2019-03-06T02:45:16.281Z,10.07
2019-03-06T02:47:45.715Z,10.73
2019-03-06T02:50:15.401Z,9.97
2019-03-06T02:52:44.893Z,9.40
2019-03-06T02:55:15.380Z,9.43
2019-03-06T02:57:51.779Z,9.83
2019-03-06T03:00:37.366Z,9.57
2019-03-06T03:03:40.927Z,9.90
2019-03-06T03:06:16.830Z,10.37
2019-03-06T03:08:46.226Z,10.80
2019-03-06T03:11:15.639Z,11.17
2019-03-06T03:13:45.696Z,10.80
2019-03-06T03:16:15.105Z,10.57
2019-03-06T03:18:44.872Z,11.40
2019-03-06T03:21:14.440Z,11.30
2019-03-06T03:23:43.930Z,11.20
2019-03-06T03:26:13.362Z,11.63
2019-03-06T03:28:42.762Z,12.17
2019-03-06T03:31:12.425Z,11.20
2019-03-06T03:33:41.822Z,11.40
2019-03-06T03:36:11.237Z,12.33
2019-03-06T03:38:40.656Z,12.13
2019-03-06T03:41:10.465Z,11.67
2019-03-06T03:43:40.021Z,11.43
2019-03-06T03:46:09.479Z,11.90
2019-03-06T03:48:38.894Z,11.60
2019-03-06T03:51:08.346Z,12.33
2019-03-06T03:53:37.744Z,11.93
2019-03-06T03:56:08.089Z,11.10
2019-03-06T03:58:37.476Z,11.43
2019-03-06T04:01:06.906Z,11.40
2019-03-06T04:03:36.349Z,10.83
2019-03-06T04:06:05.767Z,11.77
2019-03-06T04:08:35.492Z,11.47
2019-03-06T04:11:04.885Z,11.80
2019-03-06T04:13:34.584Z,10.57
2019-03-06T04:16:03.978Z,11.27
2019-03-06T04:18:33.421Z,10.97
2019-03-06T04:21:03.108Z,10.77
2019-03-06T04:23:32.996Z,10.30
2019-03-06T04:26:02.443Z,10.47
2019-03-06T04:28:31.943Z,10.07
2019-03-06T04:31:01.347Z,9.40
2019-03-06T04:33:31.055Z,10.10
2019-03-06T04:36:00.405Z,9.30
2019-03-06T04:38:29.842Z,10.30
2019-03-06T04:40:59.584Z,9.57
2019-03-06T04:43:29.024Z,9.87
2019-03-06T04:45:59.011Z,10.47
2019-03-06T04:48:28.442Z,9.47
2019-03-06T04:50:57.927Z,9.80
2019-03-06T04:53:27.355Z,9.90
2019-03-06T04:55:56.776Z,9.63
2019-03-06T04:58:26.358Z,9.37
2019-03-06T05:00:55.866Z,9.87
2019-03-06T05:03:25.491Z,10.23
2019-03-06T05:05:54.885Z,10.07
2019-03-06T05:08:24.812Z,9.27
2019-03-06T05:10:54.284Z,9.07
2019-03-06T05:13:25.266Z,10.00
2019-03-06T05:15:54.840Z,9.73
2019-03-06T05:18:42.094Z,9.27
2019-03-06T05:21:11.516Z,9.47
2019-03-06T05:23:41.272Z,9.40
2019-03-06T05:26:11.108Z,9.00
2019-03-06T05:28:40.528Z,9.77
2019-03-06T05:31:10.230Z,9.70
2019-03-06T05:33:39.672Z,8.50
2019-03-06T05:36:42.940Z,8.33
2019-03-06T05:39:12.858Z,9.50
2019-03-06T05:41:42.235Z,9.53
2019-03-06T05:44:11.754Z,9.23
2019-03-06T05:46:41.147Z,8.63
2019-03-06T05:49:10.735Z,8.10
2019-03-06T05:51:40.129Z,8.33
2019-03-06T05:54:09.556Z,8.53
2019-03-06T05:56:39.391Z,8.37
2019-03-06T05:59:08.764Z,8.03
2019-03-06T06:01:38.260Z,7.77
2019-03-06T06:04:07.650Z,8.27
2019-03-06T06:06:37.112Z,7.53
2019-03-06T06:09:07.517Z,7.83
2019-03-06T06:11:38.325Z,7.60
2019-03-06T06:14:07.778Z,7.57
2019-03-06T06:16:37.205Z,7.93
2019-03-06T06:19:06.784Z,7.73
2019-03-06T06:21:44.368Z,7.83
2019-03-06T06:24:16.738Z,8.30
2019-03-06T06:26:46.392Z,7.63
2019-03-06T06:29:15.752Z,8.40
2019-03-06T06:31:45.500Z,8.00
2019-03-06T06:34:15.128Z,8.87
2019-03-06T06:36:44.545Z,8.37
2019-03-06T06:39:14.020Z,7.83
2019-03-06T06:41:43.818Z,8.60
2019-03-06T06:44:13.246Z,8.50
2019-03-06T06:46:42.889Z,8.37
2019-03-06T06:49:12.322Z,9.00
2019-03-06T06:52:25.425Z,9.43
2019-03-06T06:55:01.795Z,8.43
2019-03-06T06:58:02.332Z,9.07
2019-03-06T07:01:20.875Z,9.07
2019-03-06T07:04:41.529Z,8.87
2019-03-06T07:07:29.884Z,9.03
2019-03-06T07:10:18.307Z,8.40
2019-03-06T07:13:10.150Z,8.63
2019-03-06T07:15:48.902Z,7.57
2019-03-06T07:18:36.214Z,8.97
2019-03-06T07:21:10.904Z,8.30
2019-03-06T07:23:48.130Z,9.40
2019-03-06T07:26:37.168Z,8.87
2019-03-06T07:29:28.618Z,8.17
2019-03-06T07:32:22.793Z,7.60
2019-03-06T07:35:49.505Z,8.67
2019-03-06T07:38:18.956Z,8.17
2019-03-06T07:41:13.316Z,8.13
2019-03-06T07:43:53.725Z,8.37
2019-03-06T07:46:42.082Z,8.47
2019-03-06T07:49:45.210Z,8.00
2019-03-06T07:52:30.052Z,8.27
2019-03-06T07:55:18.426Z,8.57
2019-03-06T07:58:24.046Z,8.93
2019-03-06T08:00:53.635Z,8.60
2019-03-06T08:03:36.430Z,8.63
2019-03-06T08:09:35.212Z,7.83
2019-03-06T08:12:23.935Z,8.53
2019-03-06T08:15:21.824Z,8.43
2019-03-06T08:18:08.955Z,8.60
2019-03-06T08:21:05.888Z,8.97
2019-03-06T08:23:53.620Z,8.80
2019-03-06T08:26:23.064Z,8.03
2019-03-06T08:28:52.462Z,8.77
2019-03-06T08:31:31.437Z,9.13
2019-03-06T08:34:00.829Z,8.23
2019-03-06T08:36:30.284Z,7.97
2019-03-06T08:38:59.748Z,8.43
2019-03-06T08:41:29.128Z,8.13
2019-03-06T08:43:58.591Z,8.63
2019-03-06T08:46:46.935Z,8.00
2019-03-06T08:49:41.551Z,8.57
2019-03-06T08:52:16.635Z,8.60
2019-03-06T08:55:02.653Z,7.93
2019-03-06T08:57:49.656Z,7.97
2019-03-06T09:00:44.356Z,7.60
2019-03-06T09:03:24.726Z,9.90
2019-03-06T09:06:03.536Z,8.13
2019-03-06T09:08:54.936Z,8.07
2019-03-06T09:11:52.245Z,7.83
2019-03-06T09:14:31.922Z,8.23
2019-03-06T09:17:11.963Z,7.60
2019-03-06T09:20:00.343Z,8.23
2019-03-06T09:22:39.093Z,8.33
2019-03-06T09:25:27.556Z,8.20
2019-03-06T09:28:06.177Z,8.57
2019-03-06T09:31:00.621Z,8.53
2019-03-06T09:33:39.407Z,8.40
2019-03-06T09:36:27.755Z,8.40
2019-03-06T09:39:09.263Z,8.97
2019-03-06T09:41:47.631Z,8.13
2019-03-06T09:44:26.623Z,9.17
2019-03-06T09:47:20.965Z,8.60
2019-03-06T09:50:07.981Z,8.43
2019-03-06T09:53:14.401Z,8.30
2019-03-06T09:56:12.171Z,8.70
2019-03-06T09:58:56.849Z,8.47
2019-03-06T10:02:06.898Z,7.87
2019-03-06T10:04:46.190Z,8.20
2019-03-06T10:07:30.646Z,8.47
2019-03-06T10:10:07.549Z,8.47
2019-03-06T10:12:58.773Z,7.50
2019-03-06T10:15:52.918Z,7.67
2019-03-06T10:18:27.491Z,8.13
2019-03-06T10:20:57.003Z,8.37
2019-03-06T10:23:26.661Z,9.33
2019-03-06T10:25:56.199Z,8.77
2019-03-06T10:28:27.965Z,8.70
2019-03-06T10:31:02.403Z,9.23
2019-03-06T10:33:27.894Z,9.33
2019-03-06T10:35:57.908Z,8.87
2019-03-06T10:38:27.287Z,9.23
2019-03-06T10:40:57.091Z,9.23
2019-03-06T10:43:26.492Z,9.83
2019-03-06T10:45:56.006Z,9.87
2019-03-06T10:48:25.445Z,9.47
2019-03-06T10:50:55.389Z,8.63
2019-03-06T10:53:24.886Z,9.90
2019-03-06T10:55:54.323Z,8.67
2019-03-06T10:58:23.769Z,8.87
2019-03-06T11:00:54.240Z,9.57
2019-03-06T11:03:34.107Z,9.27
2019-03-06T11:06:03.716Z,9.13
2019-03-06T11:08:33.238Z,9.50
2019-03-06T11:11:02.939Z,10.00
2019-03-06T11:13:32.341Z,9.17
2019-03-06T11:16:01.797Z,8.67
2019-03-06T11:18:31.206Z,9.33
2019-03-06T11:21:01.365Z,9.20
2019-03-06T11:23:30.775Z,8.60
2019-03-06T11:26:01.936Z,8.73
2019-03-06T11:28:31.556Z,9.57
2019-03-06T11:31:01.947Z,8.53
2019-03-06T11:33:31.885Z,9.57
2019-03-06T11:36:01.532Z,8.50
2019-03-06T11:38:30.962Z,8.80
2019-03-06T11:41:00.587Z,8.70
2019-03-06T11:43:30.430Z,9.83
2019-03-06T11:46:00.340Z,9.20
2019-03-06T11:48:30.155Z,10.37
2019-03-06T11:50:59.625Z,9.87
2019-03-06T11:53:29.109Z,9.37
2019-03-06T11:55:58.761Z,9.77
2019-03-06T11:58:28.309Z,9.10
2019-03-06T12:00:57.811Z,9.30
2019-03-06T12:03:27.653Z,8.70
2019-03-06T12:05:58.101Z,9.50
2019-03-06T12:08:27.551Z,7.40
2019-03-06T12:10:56.935Z,7.80
2019-03-06T12:13:26.436Z,7.27
2019-03-06T12:15:55.963Z,7.47
2019-03-06T12:18:25.926Z,6.43
2019-03-06T12:20:55.443Z,6.77
2019-03-06T12:23:24.920Z,7.17
2019-03-06T12:25:54.752Z,6.40
2019-03-06T12:28:24.237Z,6.20
2019-03-06T12:30:53.880Z,6.57
2019-03-06T12:33:25.807Z,6.07
2019-03-06T12:35:55.433Z,5.77
2019-03-06T12:38:24.986Z,5.97
2019-03-06T12:40:54.916Z,5.90
2019-03-06T12:43:24.334Z,5.80
2019-03-06T12:46:31.764Z,6.10
2019-03-06T12:49:06.426Z,5.90
2019-03-06T12:51:37.258Z,5.83
2019-03-06T12:54:07.873Z,5.33
2019-03-06T12:56:37.286Z,5.83
2019-03-06T12:59:07.483Z,5.30
2019-03-06T13:01:39.109Z,5.37
2019-03-06T13:04:08.315Z,5.83
2019-03-06T13:06:37.813Z,5.33
2019-03-06T13:09:17.969Z,5.60
2019-03-06T13:11:47.465Z,5.57
2019-03-06T13:14:16.910Z,5.20
2019-03-06T13:16:47.316Z,4.53
2019-03-06T13:19:16.677Z,4.97
2019-03-06T13:21:46.208Z,4.87
2019-03-06T13:24:16.168Z,4.60
2019-03-06T13:26:45.757Z,4.90
2019-03-06T13:29:15.207Z,5.20
2019-03-06T13:31:44.635Z,4.60
2019-03-06T13:34:32.455Z,4.93
2019-03-06T13:37:01.899Z,4.60
2019-03-06T13:39:31.272Z,4.23
2019-03-06T13:42:00.732Z,4.47
2019-03-06T13:44:30.107Z,4.60
2019-03-06T13:46:59.557Z,4.47
2019-03-06T13:49:29.005Z,4.10
2019-03-06T13:51:58.492Z,4.47
2019-03-06T13:54:27.908Z,3.70
2019-03-06T13:56:57.348Z,4.00
2019-03-06T13:59:27.084Z,3.60
2019-03-06T14:01:56.511Z,3.93
2019-03-06T14:04:25.931Z,3.90
2019-03-06T14:06:55.382Z,4.10
2019-03-06T14:09:24.873Z,3.90
2019-03-06T14:11:54.499Z,3.40
2019-03-06T14:14:23.957Z,3.43
2019-03-06T14:16:53.387Z,3.40
2019-03-06T14:19:22.829Z,3.23
2019-03-06T14:21:52.315Z,3.23
2019-03-06T14:24:21.982Z,3.53
2019-03-06T14:26:51.470Z,3.70
2019-03-06T14:29:20.933Z,2.93
2019-03-06T14:31:50.701Z,2.90
2019-03-06T14:34:20.131Z,3.30
2019-03-06T14:36:49.669Z,3.33
2019-03-06T14:39:30.477Z,2.90
2019-03-06T14:42:00.900Z,3.03
2019-03-06T14:44:30.628Z,2.83
2019-03-06T14:47:00.077Z,2.80
2019-03-06T14:49:30.442Z,2.80
2019-03-06T14:52:06.901Z,2.83
2019-03-06T14:54:31.562Z,2.53
2019-03-06T14:57:01.063Z,2.80
2019-03-06T14:59:30.493Z,3.00
2019-03-06T15:01:59.934Z,2.90
2019-03-06T15:04:48.724Z,2.87
2019-03-06T15:07:18.167Z,2.77
2019-03-06T15:09:47.604Z,3.07
2019-03-06T15:12:17.020Z,2.80
2019-03-06T15:14:46.614Z,3.27
2019-03-06T15:17:16.073Z,3.10
2019-03-06T15:19:45.501Z,3.10
2019-03-06T15:22:15.055Z,3.00
2019-03-06T15:24:44.513Z,3.00
2019-03-06T15:27:13.964Z,3.23
2019-03-06T15:29:43.402Z,3.10
2019-03-06T15:32:12.955Z,3.40
2019-03-06T15:34:42.379Z,3.47
2019-03-06T15:37:12.320Z,3.27
2019-03-06T15:39:48.148Z,3.40
2019-03-06T15:42:14.727Z,3.10
2019-03-06T15:44:44.120Z,3.40
2019-03-06T15:47:13.881Z,3.30
2019-03-06T15:49:43.357Z,3.50
2019-03-06T15:52:13.380Z,3.90
2019-03-06T15:54:42.805Z,3.53
2019-03-06T15:57:12.376Z,3.57
2019-03-06T15:59:41.898Z,3.27
2019-03-06T16:02:11.397Z,3.50
2019-03-06T16:04:40.887Z,3.47
2019-03-06T16:07:10.443Z,3.53
2019-03-06T16:09:40.167Z,3.33
2019-03-06T16:12:09.567Z,4.00
2019-03-06T16:14:39.019Z,3.53
2019-03-06T16:17:08.577Z,3.50
2019-03-06T16:19:38.116Z,4.10
2019-03-06T16:22:07.715Z,3.83
2019-03-06T16:24:37.729Z,4.23
2019-03-06T16:27:07.353Z,3.97
2019-03-06T16:29:36.775Z,4.00
2019-03-06T16:32:06.735Z,3.77
2019-03-06T16:34:36.149Z,3.83
2019-03-06T16:37:05.991Z,3.70
2019-03-06T16:39:35.740Z,4.17
2019-03-06T16:42:05.190Z,3.77
2019-03-06T16:44:34.603Z,4.63
2019-03-06T16:47:07.016Z,3.70
2019-03-06T16:49:35.126Z,3.60
2019-03-06T16:52:04.642Z,3.37
2019-03-06T16:54:34.467Z,4.00
2019-03-06T16:57:03.857Z,3.70
2019-03-06T16:59:33.414Z,3.50
2019-03-06T17:02:03.258Z,4.33
2019-03-06T17:04:33.789Z,4.47
2019-03-06T17:07:03.563Z,4.57
2019-03-06T17:09:33.436Z,3.70
2019-03-06T17:12:02.830Z,4.10
2019-03-06T17:14:32.419Z,3.87
2019-03-06T17:17:01.873Z,3.97
2019-03-06T17:19:31.281Z,4.37
2019-03-06T17:22:01.235Z,3.77
2019-03-06T17:24:30.685Z,6.30
2019-03-06T17:27:00.168Z,4.70
2019-03-06T17:29:29.603Z,4.60
2019-03-06T17:31:59.667Z,7.30
2019-03-06T17:34:29.622Z,4.60
2019-03-06T17:37:01.241Z,4.63
2019-03-06T17:39:30.314Z,4.80
2019-03-06T17:41:59.740Z,6.93
2019-03-06T17:44:29.165Z,17.07
2019-03-06T17:46:58.621Z,4.93
2019-03-06T17:49:28.087Z,4.23
2019-03-06T17:51:57.947Z,5.33
2019-03-06T17:54:28.275Z,5.30
2019-03-06T17:56:57.650Z,4.13
2019-03-06T17:59:27.623Z,3.77
2019-03-06T18:01:56.996Z,4.07
2019-03-06T18:04:27.860Z,4.03
2019-03-06T18:06:57.326Z,3.50
2019-03-06T18:09:26.772Z,3.10
2019-03-06T18:11:56.433Z,3.30
2019-03-06T18:14:25.863Z,2.97
2019-03-06T18:16:55.297Z,2.57
2019-03-06T18:19:24.742Z,2.60
2019-03-06T18:21:54.262Z,2.70
2019-03-06T18:24:23.687Z,2.67
2019-03-06T18:26:53.178Z,2.40
2019-03-06T18:29:22.570Z,2.53
2019-03-06T18:31:52.021Z,2.40
2019-03-06T18:34:21.450Z,2.43
2019-03-06T18:36:50.895Z,2.13
2019-03-06T18:39:21.114Z,2.90
2019-03-06T18:41:50.561Z,3.07
2019-03-06T18:44:19.981Z,2.97
2019-03-06T18:46:49.352Z,2.47
2019-03-06T18:49:18.801Z,2.47
2019-03-06T18:51:48.452Z,2.90
2019-03-06T18:54:17.908Z,3.23
2019-03-06T18:56:47.326Z,2.60
2019-03-06T18:59:17.178Z,3.10
2019-03-06T19:01:46.926Z,2.80
2019-03-06T19:04:16.579Z,2.50
2019-03-06T19:06:46.024Z,3.07
2019-03-06T19:09:15.520Z,2.40
2019-03-06T19:11:45.249Z,3.13
2019-03-06T19:14:14.654Z,2.50
2019-03-06T19:16:44.096Z,2.77
2019-03-06T19:19:14.208Z,2.27
2019-03-06T19:21:43.633Z,3.00
2019-03-06T19:24:13.078Z,2.93
2019-03-06T19:26:42.738Z,2.30
2019-03-06T19:29:12.210Z,2.53
2019-03-06T19:31:41.613Z,2.90
2019-03-06T19:34:11.107Z,2.70
2019-03-06T19:36:40.836Z,2.73
2019-03-06T19:39:10.432Z,3.10
2019-03-06T19:41:40.534Z,3.03
2019-03-06T19:44:10.223Z,2.67
2019-03-06T19:46:39.934Z,2.97
2019-03-06T19:49:09.368Z,3.27
2019-03-06T19:51:38.841Z,2.77
2019-03-06T19:54:08.288Z,2.50
2019-03-06T19:56:38.478Z,2.97
2019-03-06T19:59:08.222Z,2.33
2019-03-06T20:01:37.667Z,3.20
2019-03-06T20:04:07.620Z,2.70
2019-03-06T20:06:37.030Z,2.80
2019-03-06T20:09:23.573Z,2.50
2019-03-06T20:11:53.332Z,2.73
2019-03-06T20:14:22.994Z,2.50
2019-03-06T20:16:52.458Z,2.77
2019-03-06T20:19:21.926Z,2.80
2019-03-06T20:21:51.622Z,3.10
2019-03-06T20:24:21.052Z,2.80
2019-03-06T20:26:50.464Z,2.77
2019-03-06T20:29:20.111Z,2.67
2019-03-06T20:31:49.902Z,3.40
2019-03-06T20:34:19.396Z,2.57
2019-03-06T20:36:48.970Z,2.93
2019-03-06T20:39:19.343Z,3.10
2019-03-06T20:41:48.820Z,2.80
2019-03-06T20:44:18.244Z,3.00
2019-03-06T20:46:47.707Z,2.53
2019-03-06T20:49:17.222Z,3.10
2019-03-06T20:51:47.134Z,2.80
2019-03-06T20:54:16.754Z,2.70
2019-03-06T20:56:46.155Z,2.80
2019-03-06T20:59:15.718Z,2.77
2019-03-06T21:01:46.289Z,2.93
2019-03-06T21:04:17.232Z,2.80
2019-03-06T21:06:46.903Z,2.53
2019-03-06T21:09:17.112Z,2.70
2019-03-06T21:11:47.907Z,2.77
2019-03-06T21:14:17.376Z,3.40
2019-03-06T21:16:46.884Z,2.73
2019-03-06T21:19:16.311Z,3.30
2019-03-06T21:21:45.820Z,2.93
2019-03-06T21:24:15.675Z,2.60
2019-03-06T21:26:45.352Z,3.00
2019-03-06T21:29:14.801Z,3.30
2019-03-06T21:31:44.302Z,3.20
2019-03-06T21:34:13.704Z,3.03
2019-03-06T21:36:43.395Z,3.17
2019-03-06T21:39:25.698Z,3.20
2019-03-06T21:41:55.248Z,2.80
2019-03-06T21:44:24.692Z,3.50
2019-03-06T21:46:54.111Z,2.90
2019-03-06T21:49:23.801Z,3.30
2019-03-06T21:51:53.272Z,3.03
2019-03-06T21:54:23.080Z,3.60
2019-03-06T21:56:52.569Z,3.57
2019-03-06T21:59:21.980Z,3.70
2019-03-06T22:01:51.516Z,3.40
2019-03-06T22:04:21.430Z,3.27
2019-03-06T22:06:50.842Z,4.07
2019-03-06T22:09:20.645Z,3.90
2019-03-06T22:11:50.134Z,4.37
2019-03-06T22:14:21.201Z,4.33
2019-03-06T22:16:50.749Z,4.40
2019-03-06T22:19:20.202Z,4.67
2019-03-06T22:21:50.020Z,4.33
2019-03-06T22:24:19.482Z,5.10
2019-03-06T22:26:49.048Z,5.10
2019-03-06T22:29:18.422Z,4.97
2019-03-06T22:31:47.850Z,5.47
2019-03-06T22:34:17.306Z,5.10
2019-03-06T22:36:46.720Z,5.53
2019-03-06T22:39:16.246Z,5.00
2019-03-06T22:41:45.709Z,4.47
2019-03-06T22:44:15.071Z,4.97
2019-03-06T22:46:44.509Z,4.77
2019-03-06T22:49:13.966Z,4.23
2019-03-06T22:51:43.780Z,3.93
2019-03-06T22:54:13.691Z,3.90
2019-03-06T22:56:43.127Z,4.00
2019-03-06T22:59:12.750Z,3.83
2019-03-06T23:01:42.999Z,4.17
2019-03-06T23:04:12.438Z,3.60
2019-03-06T23:06:41.930Z,4.07
2019-03-06T23:09:12.931Z,3.57
2019-03-06T23:11:43.030Z,3.70
2019-03-06T23:14:12.439Z,3.87
2019-03-06T23:16:42.253Z,3.80
2019-03-06T23:19:11.756Z,3.90
2019-03-06T23:21:41.211Z,3.87
2019-03-06T23:24:10.669Z,4.13
2019-03-06T23:26:43.192Z,4.00
2019-03-06T23:29:11.327Z,4.03
2019-03-06T23:31:41.046Z,3.70
2019-03-06T23:34:11.064Z,4.53
2019-03-06T23:36:40.500Z,4.27
2019-03-06T23:39:13.298Z,4.00
2019-03-06T23:41:42.839Z,4.43
2019-03-06T23:44:12.271Z,4.57
2019-03-06T23:46:41.757Z,4.23
2019-03-06T23:49:11.583Z,4.93
2019-03-06T23:51:55.051Z,4.97
2019-03-06T23:54:24.604Z,4.93
2019-03-06T23:56:54.087Z,5.30
2019-03-06T23:59:23.551Z,5.00
